Time;durP1;ratioP1;P1;durP2;ratioP2;P2;SDS_P1;SDS_P2;PMS_P1;PMS_P2;Temp;Humidity;BMP_temperature;BMP_pressure;BME280_temperature;BME280_humidity;BME280_pressure;Samples;Min_cycle;Max_cycle;Signal;HPM_P1;HPM_P2
2022/09/19 00:01:44;;;;;;;18.83;2.97;;;11.50;99.90;;;;;;5038153;28;20562;-87
2022/09/19 00:04:16;;;;;;;14.05;2.63;;;11.50;99.90;;;;;;5039210;28;20041;-86
2022/09/19 00:06:44;;;;;;;19.55;3.00;;;11.50;99.90;;;;;;5040705;28;20037;-86
2022/09/19 00:09:13;;;;;;;16.88;2.35;;;11.50;99.90;;;;;;5044326;28;20040;-83
2022/09/19 00:11:43;;;;;;;22.35;3.33;;;11.50;99.90;;;;;;5044645;28;20033;-83
2022/09/19 00:14:14;;;;;;;25.67;3.95;;;11.50;99.90;;;;;;5042904;28;20033;-82
2022/09/19 00:16:44;;;;;;;22.30;2.95;;;11.50;99.90;;;;;;5041789;28;20522;-83
2022/09/19 00:19:18;;;;;;;14.77;2.83;;;11.50;99.90;;;;;;5041069;28;20564;-83
2022/09/19 00:21:50;;;;;;;20.45;3.15;;;11.50;99.90;;;;;;5047742;28;20123;-88
2022/09/19 00:27:04;;;;;;;19.08;3.20;;;11.50;99.90;;;;;;5062660;28;20424;-85
2022/09/19 00:29:32;;;;;;;14.63;2.92;;;11.50;99.90;;;;;;5063648;28;20036;-87
2022/09/19 00:31:58;;;;;;;28.83;4.20;;;11.50;99.90;;;;;;5061740;28;20054;-87
2022/09/19 00:34:25;;;;;;;42.83;4.78;;;11.50;99.90;;;;;;5015473;28;20127;-87
2022/09/19 00:36:51;;;;;;;13.00;2.88;;;11.50;99.90;;;;;;5046966;28;20135;-86
2022/09/19 00:39:18;;;;;;;14.73;2.63;;;11.50;99.90;;;;;;5039302;28;20190;-87
2022/09/19 00:41:49;;;;;;;15.13;2.72;;;11.60;99.90;;;;;;5047638;28;20037;-86
2022/09/19 00:44:26;;;;;;;30.25;4.18;;;11.50;99.90;;;;;;5031713;28;20036;-87
2022/09/19 00:47:06;;;;;;;17.35;3.25;;;11.60;99.90;;;;;;5058240;28;20056;-87
2022/09/19 00:49:37;;;;;;;16.10;3.23;;;11.60;99.90;;;;;;5065899;28;20059;-87
2022/09/19 00:52:08;;;;;;;17.45;2.78;;;11.60;99.90;;;;;;5057889;28;20306;-87
2022/09/19 00:54:40;;;;;;;14.77;2.90;;;11.60;99.90;;;;;;5061729;28;20294;-87
2022/09/19 00:57:11;;;;;;;13.88;2.47;;;11.50;99.90;;;;;;5045293;28;20049;-88
2022/09/19 00:59:39;;;;;;;18.48;2.92;;;11.50;99.90;;;;;;5057064;28;20432;-87
2022/09/19 01:02:08;;;;;;;13.30;2.38;;;11.50;99.90;;;;;;5045803;28;20309;-89
2022/09/19 01:04:36;;;;;;;14.02;2.75;;;11.50;99.90;;;;;;5050156;28;20047;-88
2022/09/19 01:07:13;;;;;;;17.33;3.28;;;11.40;99.90;;;;;;5062963;28;20159;-89
2022/09/19 01:10:17;;;;;;;11.30;2.40;;;11.40;99.90;;;;;;5046581;28;20056;-89
2022/09/19 01:13:09;;;;;;;27.85;3.42;;;11.40;99.90;;;;;;5051780;28;20107;-89
2022/09/19 01:16:08;;;;;;;15.13;2.67;;;11.40;99.90;;;;;;5047414;28;20044;-88
2022/09/19 01:18:48;;;;;;;16.80;2.60;;;11.40;99.90;;;;;;5049371;28;20078;-88
2022/09/19 01:21:38;;;;;;;19.75;3.72;;;11.50;99.90;;;;;;5051852;28;20049;-88
2022/09/19 01:24:41;;;;;;;21.15;2.83;;;11.40;99.90;;;;;;5066673;28;20040;-88
2022/09/19 01:27:34;;;;;;;14.25;2.80;;;11.40;99.90;;;;;;5067732;28;20048;-88
2022/09/19 01:30:10;;;;;;;19.40;3.30;;;11.40;99.90;;;;;;5049518;28;20059;-88
2022/09/19 01:32:51;;;;;;;16.35;2.58;;;11.40;99.90;;;;;;5045204;28;20108;-90
2022/09/19 01:35:23;;;;;;;13.45;2.40;;;11.40;99.90;;;;;;5048780;28;20108;-89
2022/09/19 01:38:12;;;;;;;25.05;3.35;;;11.40;99.90;;;;;;5052719;28;20055;-88
2022/09/19 01:40:39;;;;;;;25.70;3.58;;;11.40;99.90;;;;;;5049440;28;20059;-89
2022/09/19 01:43:16;;;;;;;15.07;2.88;;;11.30;99.90;;;;;;5033823;28;20070;-89
2022/09/19 01:45:42;;;;;;;21.67;2.67;;;11.30;99.90;;;;;;5048546;28;20045;-88
2022/09/19 01:48:42;;;;;;;22.50;3.88;;;11.30;99.90;;;;;;5049978;28;20041;-90
2022/09/19 01:51:23;;;;;;;21.92;3.60;;;11.40;99.90;;;;;;5057720;28;20053;-89
2022/09/19 01:54:21;;;;;;;21.75;4.03;;;11.40;99.90;;;;;;5046920;28;20083;-89
2022/09/19 01:56:47;;;;;;;21.60;3.22;;;11.40;99.90;;;;;;5045744;28;20052;-89
2022/09/19 01:59:28;;;;;;;21.20;3.30;;;11.40;99.90;;;;;;5047958;28;20499;-90
2022/09/19 02:02:14;;;;;;;18.70;3.50;;;11.40;99.90;;;;;;5046199;28;20037;-90
2022/09/19 02:05:13;;;;;;;18.38;2.75;;;11.40;99.90;;;;;;5036728;28;20037;-90
2022/09/19 02:08:01;;;;;;;36.78;5.07;;;11.50;99.90;;;;;;5061238;28;20052;-89
2022/09/19 02:10:35;;;;;;;25.83;3.13;;;11.50;99.90;;;;;;5042747;28;20052;-88
2022/09/19 02:13:09;;;;;;;17.27;3.33;;;11.50;99.90;;;;;;5032648;28;20143;-88
2022/09/19 02:15:36;;;;;;;21.10;3.03;;;11.50;99.90;;;;;;5044418;28;20532;-90
2022/09/19 02:18:22;;;;;;;31.75;4.47;;;11.50;99.90;;;;;;5040490;28;20037;-89
2022/09/19 02:20:55;;;;;;;21.10;3.10;;;11.50;99.90;;;;;;5046463;28;20116;-89
2022/09/19 02:23:33;;;;;;;29.20;4.18;;;11.50;99.90;;;;;;5055103;28;20041;-88
2022/09/19 02:26:03;;;;;;;13.02;3.33;;;11.50;99.90;;;;;;5044717;28;20040;-90
2022/09/19 02:28:38;;;;;;;20.27;3.75;;;11.50;99.90;;;;;;5038913;28;20484;-90
2022/09/19 02:31:07;;;;;;;26.70;4.35;;;11.60;99.90;;;;;;5046018;28;20056;-87
2022/09/19 02:33:43;;;;;;;17.48;3.55;;;11.60;99.90;;;;;;5027098;28;20123;-87
2022/09/19 02:36:50;;;;;;;19.88;3.58;;;11.60;99.90;;;;;;5040900;28;20056;-88
2022/09/19 02:39:26;;;;;;;15.65;3.70;;;11.70;99.90;;;;;;5028662;28;20496;-87
2022/09/19 02:42:17;;;;;;;16.30;2.90;;;11.60;99.90;;;;;;5033709;28;20053;-89
2022/09/19 02:44:57;;;;;;;27.13;3.97;;;11.60;99.90;;;;;;5044211;28;20049;-89
2022/09/19 02:47:29;;;;;;;16.60;3.35;;;11.60;99.90;;;;;;5042764;28;20088;-89
2022/09/19 02:50:03;;;;;;;15.10;2.88;;;11.50;99.90;;;;;;5055803;28;20084;-89
2022/09/19 02:52:33;;;;;;;12.93;3.05;;;11.50;99.90;;;;;;5042360;28;20052;-88
2022/09/19 02:55:23;;;;;;;21.50;3.03;;;11.50;99.90;;;;;;5042658;28;20036;-90
2022/09/19 02:57:55;;;;;;;21.25;3.53;;;11.40;99.90;;;;;;5045380;28;20041;-89
2022/09/19 03:00:21;;;;;;;27.38;3.92;;;11.40;99.90;;;;;;5041255;28;20033;-89
2022/09/19 03:06:19;;;;;;;18.80;3.03;;;11.30;99.90;;;;;;5063306;28;20076;-88
2022/09/19 03:08:51;;;;;;;18.13;3.07;;;11.30;99.90;;;;;;5042811;28;20036;-90
2022/09/19 03:11:20;;;;;;;15.45;2.47;;;11.30;99.90;;;;;;5052226;28;20311;-90
2022/09/19 03:13:48;;;;;;;15.52;2.55;;;11.30;99.90;;;;;;5042928;28;20127;-90
2022/09/19 03:16:21;;;;;;;21.35;3.13;;;11.30;99.90;;;;;;5048637;28;20490;-88
2022/09/19 03:18:50;;;;;;;20.48;3.10;;;11.30;99.90;;;;;;5035305;28;20045;-89
2022/09/19 03:21:21;;;;;;;25.85;3.88;;;11.30;99.90;;;;;;5052722;28;20044;-90
2022/09/19 03:24:06;;;;;;;18.23;2.95;;;11.30;99.90;;;;;;5040077;28;20040;-90
2022/09/19 03:26:36;;;;;;;18.65;2.80;;;11.30;99.90;;;;;;5053459;28;20053;-89
2022/09/19 03:29:22;;;;;;;14.40;2.63;;;11.20;99.90;;;;;;5051350;28;20155;-90
2022/09/19 03:31:52;;;;;;;17.83;3.03;;;11.20;99.90;;;;;;5034220;28;20827;-90
2022/09/19 03:34:23;;;;;;;11.73;2.20;;;11.20;99.90;;;;;;5049044;28;20101;-88
2022/09/19 03:36:49;;;;;;;18.15;2.67;;;11.20;99.90;;;;;;5023163;28;20048;-89
2022/09/19 03:39:15;;;;;;;25.98;3.15;;;11.10;99.90;;;;;;5031066;28;20048;-89
2022/09/19 03:41:43;;;;;;;17.92;2.85;;;11.10;99.90;;;;;;5038678;28;20127;-90
2022/09/19 03:44:11;;;;;;;21.13;2.97;;;11.10;99.90;;;;;;5041667;28;20442;-89
2022/09/19 03:46:43;;;;;;;13.55;2.25;;;11.10;99.90;;;;;;5028587;28;20044;-89
2022/09/19 03:49:11;;;;;;;15.10;2.95;;;11.10;99.90;;;;;;5032986;28;20044;-89
2022/09/19 03:51:37;;;;;;;18.33;2.67;;;11.10;99.90;;;;;;5043043;28;20377;-90
2022/09/19 03:54:03;;;;;;;15.52;2.92;;;11.10;99.90;;;;;;5045667;28;20048;-85
2022/09/19 03:56:30;;;;;;;20.90;3.35;;;11.10;99.90;;;;;;5020819;28;20328;-90
2022/09/19 03:59:17;;;;;;;15.05;2.80;;;11.20;99.90;;;;;;5037046;28;20135;-89
2022/09/19 04:01:43;;;;;;;21.75;3.10;;;11.20;99.90;;;;;;5044165;28;20045;-90
2022/09/19 04:04:10;;;;;;;19.63;2.92;;;11.20;99.90;;;;;;5046690;28;20491;-90
2022/09/19 04:06:40;;;;;;;26.25;3.55;;;11.20;99.90;;;;;;5062279;28;20128;-91
2022/09/19 04:09:09;;;;;;;14.95;2.53;;;11.20;99.90;;;;;;5026225;28;20029;-91
2022/09/19 04:11:35;;;;;;;16.63;2.38;;;11.20;99.90;;;;;;5015068;28;20041;-90
2022/09/19 04:14:01;;;;;;;19.60;2.60;;;11.20;99.90;;;;;;5019114;28;20049;-90
2022/09/19 04:16:27;;;;;;;17.92;2.63;;;11.20;99.90;;;;;;5005819;28;20047;-89
2022/09/19 04:18:53;;;;;;;21.70;2.75;;;11.20;99.90;;;;;;5040964;28;20040;-88
2022/09/19 04:21:20;;;;;;;10.85;2.35;;;11.20;99.90;;;;;;5020375;28;20106;-87
2022/09/19 04:23:46;;;;;;;9.85;2.17;;;11.20;99.90;;;;;;5028500;28;20552;-88
2022/09/19 04:26:31;;;;;;;24.13;3.03;;;11.30;99.90;;;;;;5045520;28;20041;-89
2022/09/19 04:28:57;;;;;;;21.30;3.22;;;11.20;99.90;;;;;;5035511;28;20191;-89
2022/09/19 04:31:26;;;;;;;20.00;3.03;;;11.20;99.90;;;;;;5025989;28;20841;-90
2022/09/19 04:33:56;;;;;;;24.75;3.65;;;11.30;99.90;;;;;;5047490;28;20044;-89
2022/09/19 04:36:23;;;;;;;14.53;2.80;;;11.20;99.90;;;;;;5038248;28;20040;-89
2022/09/19 04:38:52;;;;;;;18.95;2.88;;;11.20;99.90;;;;;;5034306;28;20341;-89
2022/09/19 04:41:19;;;;;;;21.05;3.15;;;11.20;99.90;;;;;;5016054;28;20040;-89
2022/09/19 04:43:48;;;;;;;12.55;2.22;;;11.20;99.90;;;;;;5040460;28;20044;-89
2022/09/19 04:46:21;;;;;;;23.90;3.73;;;11.30;99.90;;;;;;5036858;28;20047;-89
2022/09/19 04:48:47;;;;;;;13.45;2.65;;;11.30;99.90;;;;;;5052590;28;20287;-89
2022/09/19 04:51:13;;;;;;;30.75;4.13;;;11.30;99.90;;;;;;5031294;28;20053;-89
2022/09/19 04:53:40;;;;;;;16.85;3.22;;;11.30;99.90;;;;;;5041670;28;20052;-87
2022/09/19 04:56:11;;;;;;;25.35;3.47;;;11.30;99.90;;;;;;5043139;28;20049;-87
2022/09/19 04:58:40;;;;;;;23.73;3.17;;;11.30;99.90;;;;;;5021810;28;20052;-86
2022/09/19 05:01:10;;;;;;;13.80;2.95;;;11.30;99.90;;;;;;5034010;28;20048;-88
2022/09/19 05:03:37;;;;;;;16.40;2.80;;;11.30;99.90;;;;;;5014419;28;20045;-87
2022/09/19 05:06:05;;;;;;;14.07;2.72;;;11.30;99.90;;;;;;5038371;28;20049;-88
2022/09/19 05:08:41;;;;;;;14.82;2.45;;;11.30;99.90;;;;;;5048905;28;20045;-89
2022/09/19 05:11:34;;;;;;;12.88;2.33;;;11.30;99.90;;;;;;5023620;28;20056;-89
2022/09/19 05:14:03;;;;;;;14.85;2.63;;;11.30;99.90;;;;;;5018226;28;20052;-89
2022/09/19 05:16:29;;;;;;;25.30;3.65;;;11.30;99.90;;;;;;5043825;28;20037;-88
2022/09/19 05:18:55;;;;;;;14.50;2.95;;;11.30;99.90;;;;;;5027235;28;20044;-88
2022/09/19 05:21:21;;;;;;;19.90;3.17;;;11.30;99.90;;;;;;5014283;28;20510;-89
2022/09/19 05:23:47;;;;;;;22.60;3.45;;;11.30;99.90;;;;;;5048783;28;20037;-87
2022/09/19 05:26:16;;;;;;;14.68;3.22;;;11.30;99.90;;;;;;5028801;28;20045;-87
2022/09/19 05:28:44;;;;;;;33.58;4.50;;;11.30;99.90;;;;;;5039793;28;20439;-87
2022/09/19 05:31:11;;;;;;;19.42;3.65;;;11.40;99.90;;;;;;5041671;28;20075;-88
2022/09/19 05:33:36;;;;;;;31.00;4.10;;;11.40;99.90;;;;;;5038996;28;20525;-87
2022/09/19 05:36:03;;;;;;;21.05;3.25;;;11.40;99.90;;;;;;5030854;28;20048;-83
2022/09/19 05:38:31;;;;;;;21.98;3.83;;;11.40;99.90;;;;;;5039030;28;20066;-87
2022/09/19 05:40:59;;;;;;;19.83;3.42;;;11.40;99.90;;;;;;5038956;28;20049;-89
2022/09/19 05:43:26;;;;;;;14.05;3.03;;;11.40;99.90;;;;;;5041716;28;20048;-89
2022/09/19 05:45:56;;;;;;;20.45;3.38;;;11.40;99.90;;;;;;5026661;28;20045;-89
2022/09/19 05:48:26;;;;;;;17.38;3.03;;;11.40;99.90;;;;;;5043213;28;20082;-90
2022/09/19 05:50:53;;;;;;;19.20;3.25;;;11.40;99.90;;;;;;5044071;28;20078;-89
2022/09/19 05:56:05;;;;;;;13.50;2.45;;;11.20;99.90;;;;;;5047606;28;20080;-89
2022/09/19 05:58:33;;;;;;;12.60;2.65;;;11.20;99.90;;;;;;5037887;28;20066;-90
2022/09/19 06:01:03;;;;;;;26.20;3.60;;;11.20;99.90;;;;;;5055333;28;20091;-87
2022/09/19 06:03:29;;;;;;;17.35;2.83;;;11.10;99.90;;;;;;5042405;28;20043;-89
2022/09/19 06:05:55;;;;;;;18.23;2.95;;;11.10;99.90;;;;;;5024848;28;20044;-89
2022/09/19 06:08:22;;;;;;;10.68;2.22;;;11.10;99.90;;;;;;5044994;28;20115;-90
2022/09/19 06:10:49;;;;;;;21.23;3.47;;;11.20;99.90;;;;;;5045089;28;20078;-89
2022/09/19 06:13:20;;;;;;;20.95;3.03;;;11.30;99.90;;;;;;5014805;28;20130;-89
2022/09/19 06:15:50;;;;;;;15.35;3.05;;;11.30;99.90;;;;;;5061068;28;20615;-90
2022/09/19 06:18:17;;;;;;;30.17;4.37;;;11.40;99.90;;;;;;5029841;28;20049;-89
2022/09/19 06:20:44;;;;;;;15.63;3.13;;;11.40;99.90;;;;;;5042395;28;20451;-90
2022/09/19 06:23:11;;;;;;;19.60;2.72;;;11.50;99.90;;;;;;5058104;28;20048;-90
2022/09/19 06:25:39;;;;;;;31.92;4.78;;;11.50;99.90;;;;;;5060437;28;20044;-90
2022/09/19 06:28:15;;;;;;;12.95;2.97;;;11.50;99.90;;;;;;5047752;28;20036;-90
2022/09/19 06:30:41;;;;;;;11.52;2.70;;;11.50;99.90;;;;;;5048066;28;20098;-90
2022/09/19 06:33:07;;;;;;;19.20;2.78;;;11.50;99.90;;;;;;5047344;28;20404;-90
2022/09/19 06:35:51;;;;;;;14.25;2.88;;;11.50;99.90;;;;;;5019883;28;20182;-91
2022/09/19 06:38:20;;;;;;;12.63;2.53;;;11.50;99.90;;;;;;5012225;28;20082;-89
2022/09/19 06:40:52;;;;;;;19.80;3.78;;;11.40;99.90;;;;;;5043574;28;20037;-90
2022/09/19 06:43:18;;;;;;;19.42;3.72;;;11.50;99.90;;;;;;5048458;28;20044;-91
2022/09/19 06:45:47;;;;;;;7.60;2.72;;;11.50;99.90;;;;;;5049223;28;20044;-90
2022/09/19 06:48:13;;;;;;;31.38;4.93;;;11.50;99.90;;;;;;5029495;28;20396;-90
2022/09/19 06:50:43;;;;;;;22.65;3.50;;;11.50;99.90;;;;;;5042152;28;20055;-89
2022/09/19 06:53:09;;;;;;;13.75;2.85;;;11.50;99.90;;;;;;5043316;28;20083;-90
2022/09/19 06:55:41;;;;;;;12.95;2.38;;;11.60;99.90;;;;;;5031527;28;20560;-90
2022/09/19 06:58:08;;;;;;;14.00;2.35;;;11.60;99.90;;;;;;5053321;28;20503;-91
2022/09/19 07:00:38;;;;;;;19.17;4.75;;;11.70;99.90;;;;;;5024233;28;20064;-84
2022/09/19 07:03:13;;;;;;;17.33;2.90;;;11.80;99.90;;;;;;5034820;28;20051;-84
2022/09/19 07:05:42;;;;;;;14.07;3.38;;;11.90;99.90;;;;;;5040028;28;21147;-84
2022/09/19 07:08:12;;;;;;;16.02;3.08;;;11.90;99.90;;;;;;5044028;28;20044;-85
2022/09/19 07:10:42;;;;;;;12.05;3.03;;;11.90;99.90;;;;;;5014614;28;20051;-90
2022/09/19 07:13:14;;;;;;;13.75;2.65;;;11.90;99.90;;;;;;5011891;28;20091;-91
2022/09/19 07:15:41;;;;;;;20.70;4.10;;;11.90;99.90;;;;;;5041585;28;20052;-91
2022/09/19 07:18:13;;;;;;;15.82;2.53;;;12.00;99.90;;;;;;5027652;28;20446;-91
2022/09/19 07:20:42;;;;;;;27.00;3.92;;;12.00;99.90;;;;;;5036132;28;20090;-91
2022/09/19 07:23:15;;;;;;;16.48;2.63;;;12.10;99.90;;;;;;5043365;28;20044;-91
2022/09/19 07:25:43;;;;;;;16.45;2.75;;;12.40;99.90;;;;;;5026684;28;20037;-93
2022/09/19 07:28:12;;;;;;;12.07;3.00;;;12.50;99.90;;;;;;5045156;28;20044;-92
2022/09/19 07:30:39;;;;;;;16.37;2.83;;;12.70;99.90;;;;;;5043493;28;20076;-92
2022/09/19 07:33:13;;;;;;;11.40;2.30;;;12.80;99.90;;;;;;5048026;28;20289;-92
2022/09/19 07:35:41;;;;;;;12.52;2.63;;;12.90;99.90;;;;;;5046224;28;20128;-91
2022/09/19 07:38:17;;;;;;;13.82;2.60;;;12.90;99.90;;;;;;5042598;28;20131;-93
2022/09/19 07:40:43;;;;;;;11.80;2.30;;;12.90;99.90;;;;;;5043148;28;20066;-92
2022/09/19 07:43:13;;;;;;;16.10;3.15;;;12.90;99.90;;;;;;5042519;28;20049;-92
2022/09/19 07:45:44;;;;;;;18.55;3.17;;;12.90;99.90;;;;;;5045037;28;20044;-92
2022/09/19 07:48:10;;;;;;;15.00;3.25;;;12.90;99.90;;;;;;5041439;28;20050;-93
2022/09/19 07:50:37;;;;;;;15.65;3.00;;;13.10;99.90;;;;;;5045366;28;20057;-93
2022/09/19 07:53:07;;;;;;;13.05;2.40;;;13.30;99.90;;;;;;5046391;28;20044;-92
2022/09/19 07:55:35;;;;;;;12.77;2.65;;;13.50;99.90;;;;;;5047359;28;20508;-92
2022/09/19 07:58:06;;;;;;;13.02;2.72;;;13.70;99.90;;;;;;5044855;28;20580;-93
2022/09/19 08:00:34;;;;;;;20.90;3.03;;;13.80;99.90;;;;;;5029511;28;20048;-92
2022/09/19 08:03:11;;;;;;;17.60;2.53;;;13.80;99.90;;;;;;5044800;28;20041;-91
2022/09/19 08:05:39;;;;;;;17.05;2.75;;;13.80;99.90;;;;;;5028867;28;20507;-92
2022/09/19 08:08:07;;;;;;;12.07;2.03;;;13.70;99.90;;;;;;5043394;28;20037;-92
2022/09/19 08:10:34;;;;;;;12.57;2.58;;;13.70;99.90;;;;;;5045942;28;20070;-92
2022/09/19 08:13:04;;;;;;;23.55;3.38;;;13.80;99.90;;;;;;5044983;28;20052;-91
2022/09/19 08:15:30;;;;;;;;;;;13.90;99.90;;;;;;5025920;28;20052;-92
2022/09/19 08:17:57;;;;;;;13.88;2.83;;;14.00;99.90;;;;;;5042838;28;19924;-92
2022/09/19 08:20:25;;;;;;;14.73;2.22;;;14.10;99.90;;;;;;5055245;28;20059;-90
2022/09/19 08:23:02;;;;;;;13.38;2.58;;;14.30;99.90;;;;;;5021720;28;20107;-89
2022/09/19 08:25:32;;;;;;;16.05;2.40;;;14.50;99.90;;;;;;5045026;28;20047;-89
2022/09/19 08:27:58;;;;;;;;;;;14.70;99.90;;;;;;5027441;28;20044;-88
2022/09/19 08:30:26;;;;;;;11.88;2.45;;;14.90;99.90;;;;;;5058212;28;20320;-88
2022/09/19 08:32:52;;;;;;;50.60;15.10;;;15.00;99.90;;;;;;5039889;28;20052;-88
2022/09/19 08:35:20;;;;;;;14.85;2.92;;;15.20;99.90;;;;;;5023910;28;20300;-88
2022/09/19 08:37:47;;;;;;;12.90;2.45;;;15.40;99.90;;;;;;5024761;28;20123;-86
2022/09/19 08:40:25;;;;;;;17.65;4.43;;;15.60;99.90;;;;;;5059915;28;20048;-86
2022/09/19 08:43:09;;;;;;;16.85;2.70;;;15.60;99.90;;;;;;5058997;28;20048;-86
2022/09/19 08:45:39;;;;;;;11.82;2.15;;;15.50;99.90;;;;;;5049730;28;20040;-85
2022/09/19 08:48:13;;;;;;;10.50;2.38;;;15.40;99.90;;;;;;5042313;28;20102;-87
2022/09/19 08:50:44;;;;;;;12.73;2.40;;;15.40;99.90;;;;;;5060664;28;20049;-85
2022/09/19 08:53:16;;;;;;;13.82;2.40;;;15.50;99.90;;;;;;5061279;28;20049;-85
2022/09/19 08:55:44;;;;;;;13.93;2.38;;;15.50;99.90;;;;;;5047195;28;20071;-86
2022/09/19 08:58:18;;;;;;;11.60;2.20;;;15.70;99.90;;;;;;5025816;28;20046;-85
2022/09/19 09:00:45;;;;;;;11.93;2.80;;;15.80;99.90;;;;;;5043074;28;20862;-87
2022/09/19 09:03:17;;;;;;;13.45;2.30;;;15.90;99.90;;;;;;5043296;28;20527;-84
2022/09/19 09:05:55;;;;;;;20.80;3.42;;;16.10;99.90;;;;;;5042902;28;20519;-83
2022/09/19 09:08:41;;;;;;;13.88;3.50;;;16.20;99.90;;;;;;5057869;28;20113;-83
2022/09/19 09:11:22;;;;;;;13.65;2.53;;;16.30;99.90;;;;;;5044168;28;20532;-82
2022/09/19 09:13:51;;;;;;;10.45;2.53;;;16.40;99.90;;;;;;5043860;28;20106;-82
2022/09/19 09:16:34;;;;;;;15.38;2.40;;;16.50;99.90;;;;;;5045978;28;20056;-84
2022/09/19 09:19:19;;;;;;;11.32;2.35;;;16.40;99.90;;;;;;5059381;28;20091;-82
2022/09/19 09:22:07;;;;;;;11.65;2.50;;;16.30;99.90;;;;;;5046412;28;20045;-81
2022/09/19 09:24:39;;;;;;;9.07;1.90;;;16.20;99.90;;;;;;5042100;28;20123;-82
2022/09/19 09:27:13;;;;;;;15.27;3.35;;;16.20;99.90;;;;;;5040180;28;20119;-84
2022/09/19 09:30:16;;;;;;;14.10;2.33;;;16.30;99.90;;;;;;5043682;28;20040;-83
2022/09/19 09:32:47;;;;;;;11.77;2.22;;;16.40;99.90;;;;;;5042138;28;20114;-82
2022/09/19 09:35:34;;;;;;;11.98;2.22;;;16.60;99.90;;;;;;5055145;28;20550;-81
2022/09/19 09:38:22;;;;;;;13.05;2.95;;;16.70;99.90;;;;;;5058359;28;20045;-85
2022/09/19 09:44:19;;;;;;;10.10;2.03;;;16.30;99.90;;;;;;5055199;28;20045;-82
2022/09/19 09:47:07;;;;;;;9.82;1.92;;;16.10;99.90;;;;;;5044620;28;20123;-82
2022/09/19 09:49:33;;;;;;;12.10;2.50;;;16.00;99.90;;;;;;5054684;28;20519;-82
2022/09/19 09:52:15;;;;;;;10.88;2.13;;;15.90;99.90;;;;;;5042429;28;20067;-81
2022/09/19 09:58:19;;;;;;;13.90;2.25;;;15.90;99.90;;;;;;5053756;28;20104;-82
2022/09/19 10:03:55;;;;;;;10.55;2.15;;;16.30;99.90;;;;;;5048287;28;20045;-82
2022/09/19 10:06:24;;;;;;;13.52;2.60;;;16.50;99.90;;;;;;5053956;28;20044;-82
2022/09/19 10:09:06;;;;;;;11.27;2.60;;;16.70;99.90;;;;;;5050209;28;20148;-79
2022/09/19 10:11:35;;;;;;;10.93;1.92;;;17.00;99.90;;;;;;5049590;28;20495;-81
2022/09/19 10:14:02;;;;;;;5.82;1.17;;;17.00;99.90;;;;;;5053889;28;20049;-81
2022/09/19 10:16:32;;;;;;;7.55;1.25;;;16.70;99.90;;;;;;5051367;28;20511;-81
2022/09/19 10:19:16;;;;;;;;;;;16.50;99.90;;;;;;5030787;28;20048;-80
2022/09/19 10:21:42;;;;;;;10.50;2.33;;;16.30;99.90;;;;;;5043747;28;19943;-81
2022/09/19 10:24:40;;;;;;;11.48;2.08;;;16.40;99.90;;;;;;5022066;28;20861;-80
2022/09/19 10:27:23;;;;;;;13.90;2.15;;;16.40;99.90;;;;;;5051262;28;20048;-79
2022/09/19 10:30:18;;;;;;;13.05;2.60;;;16.50;99.90;;;;;;5040387;28;20053;-81
2022/09/19 10:32:45;;;;;;;11.77;2.20;;;16.70;99.90;;;;;;5030218;28;20053;-79
2022/09/19 10:35:29;;;;;;;9.88;1.95;;;16.70;99.90;;;;;;5037549;28;20052;-81
2022/09/19 10:38:15;;;;;;;10.48;1.92;;;16.90;99.90;;;;;;5034684;28;20059;-79
2022/09/19 10:40:56;;;;;;;9.95;2.72;;;16.90;99.90;;;;;;5029557;28;20048;-80
2022/09/19 10:43:48;;;;;;;8.50;1.70;;;17.00;99.90;;;;;;5043004;28;20045;-85
2022/09/19 10:46:39;;;;;;;7.95;1.50;;;16.90;99.90;;;;;;5039472;28;20040;-82
2022/09/19 10:49:25;;;;;;;6.88;1.33;;;16.70;99.90;;;;;;5034224;28;20121;-79
2022/09/19 10:51:55;;;;;;;6.55;1.25;;;16.40;99.90;;;;;;5050220;28;20060;-85
2022/09/19 10:54:32;;;;;;;7.30;1.27;;;16.40;99.90;;;;;;5022949;28;20045;-83
2022/09/19 10:56:59;;;;;;;6.35;1.17;;;16.20;99.90;;;;;;5050748;28;20722;-81
2022/09/19 10:59:38;;;;;;;7.10;2.17;;;16.00;99.90;;;;;;5027468;28;20056;-82
2022/09/19 11:02:27;;;;;;;7.03;1.65;;;15.80;99.90;;;;;;5041057;28;20048;-80
2022/09/19 11:05:02;;;;;;;10.93;1.80;;;15.70;99.90;;;;;;5056123;28;20139;-82
2022/09/19 11:07:32;;;;;;;8.77;1.65;;;15.80;99.90;;;;;;5054497;28;20051;-82
2022/09/19 11:09:59;;;;;;;10.65;1.90;;;16.00;99.90;;;;;;5061198;28;20044;-84
2022/09/19 11:12:27;;;;;;;7.55;1.60;;;16.20;99.90;;;;;;5042099;28;20040;-84
2022/09/19 11:14:57;;;;;;;12.32;2.55;;;16.40;99.90;;;;;;5041735;28;20048;-85
2022/09/19 11:17:46;;;;;;;11.52;3.13;;;16.50;99.90;;;;;;5052784;28;20033;-81
2022/09/19 11:20:18;;;;;;;11.48;2.00;;;16.50;99.90;;;;;;5043644;28;20040;-82
2022/09/19 11:23:22;;;;;;;11.88;2.67;;;16.50;99.90;;;;;;5043373;28;20139;-83
2022/09/19 11:26:15;;;;;;;13.82;2.83;;;16.60;99.90;;;;;;5042490;28;20044;-80
2022/09/19 11:29:04;;;;;;;10.93;2.92;;;16.70;99.90;;;;;;5042947;28;20036;-83
2022/09/19 11:31:43;;;;;;;10.15;2.42;;;16.80;99.90;;;;;;5043863;28;20151;-81
2022/09/19 11:34:17;;;;;;;12.43;2.80;;;16.80;99.90;;;;;;5042895;28;20048;-82
2022/09/19 11:37:06;;;;;;;10.90;2.90;;;16.80;99.90;;;;;;5043727;28;20044;-81
2022/09/19 11:40:03;;;;;;;11.27;2.80;;;16.90;99.90;;;;;;5059545;28;20044;-81
2022/09/19 11:42:29;;;;;;;16.35;2.53;;;16.80;99.90;;;;;;5060137;28;20048;-81
2022/09/19 11:45:17;;;;;;;10.30;2.10;;;16.60;99.90;;;;;;5060707;28;20578;-80
2022/09/19 11:47:52;;;;;;;13.90;2.72;;;16.30;99.90;;;;;;5041832;28;20052;-79
2022/09/19 11:50:36;;;;;;;10.32;2.60;;;16.20;99.90;;;;;;5042801;28;20550;-80
2022/09/19 11:53:29;;;;;;;10.40;2.45;;;16.00;99.90;;;;;;5040409;28;20051;-80
2022/09/19 11:56:26;;;;;;;12.63;2.38;;;15.90;99.90;;;;;;5044518;28;20049;-81
2022/09/19 11:59:18;;;;;;;12.82;2.72;;;15.90;99.90;;;;;;5039898;28;20537;-81
2022/09/19 12:02:23;;;;;;;12.88;2.40;;;15.80;99.90;;;;;;5042152;28;20088;-80
2022/09/19 12:05:17;;;;;;;9.38;2.15;;;15.60;99.90;;;;;;5043757;28;20042;-83
2022/09/19 12:08:13;;;;;;;13.27;4.03;;;15.30;99.90;;;;;;5044496;28;20072;-82
2022/09/19 12:10:55;;;;;;;10.75;3.08;;;15.10;99.90;;;;;;5046667;28;20043;-82
2022/09/19 12:13:27;;;;;;;11.15;1.95;;;14.80;99.90;;;;;;5046155;28;20291;-82
2022/09/19 12:16:03;;;;;;;9.25;2.08;;;14.60;99.90;;;;;;5047465;28;20041;-82
2022/09/19 12:19:04;;;;;;;10.35;2.10;;;14.50;99.90;;;;;;5046654;28;20145;-81
2022/09/19 12:21:46;;;;;;;13.05;2.05;;;14.30;99.90;;;;;;5037417;28;20201;-84
2022/09/19 12:27:11;;;;;;;10.00;1.77;;;14.10;99.90;;;;;;5061363;28;20487;-83
2022/09/19 12:30:08;;;;;;;12.13;2.63;;;14.20;99.90;;;;;;5063772;28;20126;-83
2022/09/19 12:32:46;;;;;;;10.68;2.20;;;14.20;99.90;;;;;;5036587;28;20052;-84
2022/09/19 12:35:50;;;;;;;13.43;2.67;;;14.30;99.90;;;;;;5059196;28;20044;-83
2022/09/19 12:38:31;;;;;;;11.13;2.45;;;14.50;99.90;;;;;;5030260;28;20063;-84
2022/09/19 12:41:34;;;;;;;11.35;2.30;;;14.70;99.90;;;;;;5048792;28;20079;-84
2022/09/19 12:44:19;;;;;;;14.60;2.67;;;15.00;99.90;;;;;;5047914;28;20040;-85
2022/09/19 12:47:43;;;;;;;14.43;2.58;;;15.20;99.90;;;;;;5044798;28;20111;-84
2022/09/19 12:50:40;;;;;;;11.65;2.08;;;15.50;99.90;;;;;;5021638;28;20504;-88
2022/09/19 12:53:13;;;;;;;13.02;3.05;;;15.70;99.90;;;;;;4990700;28;20102;-84
2022/09/19 12:56:01;;;;;;;15.73;2.67;;;15.90;99.90;;;;;;5036903;28;20059;-84
2022/09/19 12:59:00;;;;;;;13.20;2.53;;;16.10;99.90;;;;;;5042588;28;20513;-84
2022/09/19 13:01:45;;;;;;;15.03;2.40;;;16.20;99.90;;;;;;5042355;28;20067;-85
2022/09/19 13:04:21;;;;;;;12.95;2.88;;;16.10;99.90;;;;;;5050651;28;20074;-82
2022/09/19 13:06:49;;;;;;;10.27;2.20;;;16.00;99.90;;;;;;5060625;28;20407;-81
2022/09/19 13:09:36;;;;;;;11.77;2.65;;;15.80;99.90;;;;;;5060521;28;20106;-84
2022/09/19 13:12:49;;;;;;;14.73;2.83;;;15.50;99.90;;;;;;5047788;28;20052;-83
2022/09/19 13:15:27;;;;;;;10.80;2.20;;;15.10;99.90;;;;;;5054312;28;20078;-85
2022/09/19 13:23:33;;;;;;;10.32;1.70;;;14.60;99.90;;;;;;5058080;28;20271;-83
2022/09/19 13:26:18;;;;;;;10.27;2.25;;;14.50;99.90;;;;;;5024138;28;20048;-83
2022/09/19 13:29:26;;;;;;;14.63;2.65;;;14.40;99.90;;;;;;5061267;28;20086;-84
2022/09/19 13:32:01;;;;;;;15.70;2.75;;;14.30;99.90;;;;;;5041019;28;20194;-83
2022/09/19 13:34:44;;;;;;;12.30;2.30;;;14.20;99.90;;;;;;5026996;28;20190;-83
2022/09/19 13:37:28;;;;;;;9.90;1.88;;;14.20;99.90;;;;;;5042079;28;20372;-82
2022/09/19 13:40:27;;;;;;;11.63;1.92;;;14.10;99.90;;;;;;5043674;28;20040;-84
2022/09/19 13:43:11;;;;;;;11.57;2.00;;;14.10;99.90;;;;;;5008679;28;20143;-82
2022/09/19 13:45:46;;;;;;;10.63;2.00;;;14.00;99.90;;;;;;5047535;28;20040;-84
2022/09/19 13:48:50;;;;;;;11.80;2.05;;;13.90;99.90;;;;;;5042354;28;20079;-83